Hauptseite
METAR-TAF:

METAR-TAF

Flughäfen :

Kanoya, Japan

Breite: 31-22N, Länge: 130-50E, Höhe: 65 m

Beobachtung

Neuester Wetterbericht von vor 29 Minuten, um 23:25 UTC
Wind 11 kt aus Nordost
Temperatur 21°C
Luftfeuchtigkeit 88%
Luftdruck 1008 hPa
Sichtweite: 3200 m
Leicht bewölkt in der Höhe von 300 ft
Durchbrochene Bewölkung in der Höhe von 600 ft
Geschlossene Wolkendecke in der Höhe von 2500 ft
Regenschauer, feuchter Dunst

METAR: RJFY 192325Z 05011KT 3200 SHRA BR FEW003 BKN006 OVC025 21/19 Q1008 RMK 1ST003 6ST006 8CU025 A2979

Zeit: 08:54 (23:54 UTC)


TAF: fehlend

Wetterbeobachtungen und Prognosen von mehr als 4000 Flughäfen (METAR und TAF Bericht).

Die verfügbaren Stationen werden durch gelbe und rote Markierungen auf der Karte dargestellt.

Führen Sie die Maus auf sie, um den Namen der Station zu sehen.

Darauf klicken, um die Beobachtung von Wetterbeobachtungen und Prognosen zu sehen.

Um die Karte zu ändern : klicken Sie auf den grünen Tasten mit einem schwarzen Kreuz Zum Vergrößern, auf den grünen Button mit einem Gedankenstrich zu verkleinern, oder auf die grünen Pfeile für benachbarte Karten.


METAR-TAF: